Thursday, February 22, 2018, 12:12 PM EST
Back to Local

KFRG, Farmingdale Republic Airport

Location: Farmingdale, NY, United States Lat: 40.733
Local Time: 12:12 PM EST (17:12 GMT) Lon: -73.417
Time Zone: US/Eastern Elev: 82 ft

Show me the last for .
Show Decoded

2018-02-22 11:53 METAR KFRG 221653Z 06012G18KT 10SM OVC049 07/01 A3057 RMK AO2 SLP353 T00670006 =
2018-02-22 10:53 METAR KFRG 221553Z 04011KT 10SM OVC050 07/01 A3061 RMK AO2 RAB38E51 SLP366 P0000
                 T00670011 =
2018-02-22 09:53 METAR KFRG 221453Z 06010KT 10SM OVC055 07/01 A3059 RMK AO2 SLP357 60000
                 T00720006 53015 =
2018-02-22 09:27 METAR KFRG 221427Z 05010KT 10SM FEW028 OVC055 07/01 A3059 RMK AO2 T00720006 =
2018-02-22 08:53 METAR KFRG 221353Z 05012KT 10SM BKN027 OVC060 07/02 A3056 RMK AO2 RAB24E36
                 SLP350 P0000 T00720017 =
2018-02-22 08:05 METAR KFRG 221305Z 04011G19KT 10SM BKN023 OVC055 07/02 A3055 RMK AO2 T00720022 =
2018-02-22 07:53 METAR KFRG 221253Z 03012G19KT 10SM FEW022 OVC055 07/03 A3054 RMK AO2 SLP344
                 T00720028 =
2018-02-22 06:53 METAR KFRG 221153Z 04009KT 10SM OVC055 07/03 A3054 RMK AO2 SLP342 70001
                 T00670028 10128 20067 51016 =
2018-02-22 05:53 METAR KFRG 221053Z AUTO 01015KT 10SM OVC055 08/02 A3054 RMK AO2 SLP342 T00830017
                 =
2018-02-22 04:53 METAR KFRG 220953Z AUTO 01011KT 10SM OVC049 09/03 A3052 RMK AO2 SLP334 T00890033
                 =
2018-02-22 03:53 METAR KFRG 220853Z AUTO 01009KT 10SM OVC047 09/04 A3049 RMK AO2 SLP326 T00940039
                 51027 =
2018-02-22 02:53 METAR KFRG 220753Z AUTO 02009KT 10SM OVC045 11/04 A3047 RMK AO2 SLP317 T01060044
                 =
2018-02-22 01:53 METAR KFRG 220653Z AUTO 36006KT 10SM OVC039 12/04 A3044 RMK AO2 SLP309 T01220039
                 =
2018-02-22 00:53 METAR KFRG 220553Z AUTO 01008KT 10SM OVC040 13/06 A3041 RMK AO2 RAB30E46 SLP298
                 P0000 60001 T01280061 10178 20117 51019 =
2018-02-21 23:53 METAR KFRG 220453Z AUTO 02006KT 10SM BKN040 OVC055 13/08 A3040 RMK AO2 SLP292
                 T01330083 401780078 =
2018-02-21 22:53 METAR KFRG 220353Z AUTO 01007KT 10SM BKN034 OVC070 13/11 A3038 RMK AO2 RAB12E48
                 SLP287 P0001 T01330106 =
2018-02-21 21:53 METAR KFRG 220253Z AUTO 01011KT 10SM OVC036 16/12 A3036 RMK AO2 SLP279 T01560122
                 53028 =
2018-02-21 20:53 METAR KFRG 220153Z AUTO 00000KT 10SM BKN036 BKN050 OVC065 14/11 A3032 RMK AO2
                 SLP268 T01390111 =
2018-02-21 19:53 METAR KFRG 220053Z AUTO 17004KT 10SM CLR 12/10 A3028 RMK AO2 SLP254 T01220100 =
2018-02-21 18:53 METAR KFRG 212353Z 22008KT 10SM CLR 13/11 A3027 RMK AO2 SLP252 T01280106 10178
                 20128 53016 =
2018-02-21 17:53 METAR KFRG 212253Z 22005KT 10SM CLR 13/11 A3025 RMK AO2 SLP244 T01330106 =
2018-02-21 16:53 METAR KFRG 212153Z 18007KT 10SM CLR 15/11 A3023 RMK AO2 SLP237 T01500106 =
2018-02-21 15:53 METAR KFRG 212053Z 19008KT 10SM CLR 17/11 A3022 RMK AO2 SLP235 T01670111 55008 =
2018-02-21 14:53 METAR KFRG 211953Z 18007KT 10SM CLR 17/12 A3021 RMK AO2 SLP232 T01720117 =
2018-02-21 13:53 METAR KFRG 211853Z 19008KT 10SM CLR 17/12 A3022 RMK AO2 SLP234 T01720122 =
2018-02-21 12:53 METAR KFRG 211753Z 22010KT 10SM CLR 16/13 A3025 RMK AO2 SLP243 T01610128 10161
                 20083 58021 =

Support USWX by starting your Amazon purchase here.